sensor_id;sensor_type;location;lat;lon;timestamp;P1;durP1;ratioP1;P2;durP2;ratioP2
4939;SDS011;2485;49.326;7.214;2024-03-06T00:01:52;24.20;;;13.87;;
4939;SDS011;2485;49.326;7.214;2024-03-06T00:04:21;19.80;;;13.00;;
4939;SDS011;2485;49.326;7.214;2024-03-06T00:06:49;26.90;;;12.83;;
4939;SDS011;2485;49.326;7.214;2024-03-06T00:09:21;22.53;;;12.03;;
4939;SDS011;2485;49.326;7.214;2024-03-06T00:11:49;25.67;;;13.40;;
4939;SDS011;2485;49.326;7.214;2024-03-06T00:14:17;24.93;;;12.17;;
4939;SDS011;2485;49.326;7.214;2024-03-06T00:16:49;26.07;;;12.47;;
4939;SDS011;2485;49.326;7.214;2024-03-06T00:19:17;22.40;;;12.07;;
4939;SDS011;2485;49.326;7.214;2024-03-06T00:21:46;26.50;;;13.50;;
4939;SDS011;2485;49.326;7.214;2024-03-06T00:24:13;25.80;;;14.53;;
4939;SDS011;2485;49.326;7.214;2024-03-06T00:26:42;22.83;;;12.10;;
4939;SDS011;2485;49.326;7.214;2024-03-06T00:29:10;20.47;;;12.00;;
4939;SDS011;2485;49.326;7.214;2024-03-06T00:31:42;29.30;;;15.10;;
4939;SDS011;2485;49.326;7.214;2024-03-06T00:34:11;33.10;;;15.23;;
4939;SDS011;2485;49.326;7.214;2024-03-06T00:36:40;27.17;;;13.97;;
4939;SDS011;2485;49.326;7.214;2024-03-06T00:39:09;26.73;;;14.40;;
4939;SDS011;2485;49.326;7.214;2024-03-06T00:41:39;27.00;;;13.53;;
4939;SDS011;2485;49.326;7.214;2024-03-06T00:44:08;29.70;;;15.00;;
4939;SDS011;2485;49.326;7.214;2024-03-06T00:46:36;32.83;;;15.40;;
4939;SDS011;2485;49.326;7.214;2024-03-06T00:49:04;27.70;;;16.00;;
4939;SDS011;2485;49.326;7.214;2024-03-06T00:51:36;29.97;;;15.00;;
4939;SDS011;2485;49.326;7.214;2024-03-06T00:54:06;30.37;;;15.47;;
4939;SDS011;2485;49.326;7.214;2024-03-06T00:56:37;34.63;;;16.57;;
4939;SDS011;2485;49.326;7.214;2024-03-06T00:59:05;28.20;;;15.87;;
4939;SDS011;2485;49.326;7.214;2024-03-06T01:01:33;28.57;;;15.60;;
4939;SDS011;2485;49.326;7.214;2024-03-06T01:04:02;34.00;;;17.00;;
4939;SDS011;2485;49.326;7.214;2024-03-06T01:06:30;31.77;;;16.37;;
4939;SDS011;2485;49.326;7.214;2024-03-06T01:08:59;29.60;;;16.43;;
4939;SDS011;2485;49.326;7.214;2024-03-06T01:11:27;29.60;;;15.90;;
4939;SDS011;2485;49.326;7.214;2024-03-06T01:14:15;27.97;;;13.80;;
4939;SDS011;2485;49.326;7.214;2024-03-06T01:16:45;28.53;;;13.80;;
4939;SDS011;2485;49.326;7.214;2024-03-06T01:19:14;23.20;;;11.50;;
4939;SDS011;2485;49.326;7.214;2024-03-06T01:21:42;16.80;;;10.37;;
4939;SDS011;2485;49.326;7.214;2024-03-06T01:24:12;20.50;;;12.07;;
4939;SDS011;2485;49.326;7.214;2024-03-06T01:26:40;24.37;;;12.13;;
4939;SDS011;2485;49.326;7.214;2024-03-06T01:29:07;25.43;;;12.60;;
4939;SDS011;2485;49.326;7.214;2024-03-06T01:31:36;23.53;;;12.03;;
4939;SDS011;2485;49.326;7.214;2024-03-06T01:34:03;21.30;;;11.53;;
4939;SDS011;2485;49.326;7.214;2024-03-06T01:36:31;25.30;;;13.03;;
4939;SDS011;2485;49.326;7.214;2024-03-06T01:38:58;23.83;;;13.50;;
4939;SDS011;2485;49.326;7.214;2024-03-06T01:41:31;27.23;;;12.53;;
4939;SDS011;2485;49.326;7.214;2024-03-06T01:44:00;26.77;;;14.30;;
4939;SDS011;2485;49.326;7.214;2024-03-06T01:46:30;25.73;;;12.73;;
4939;SDS011;2485;49.326;7.214;2024-03-06T01:49:00;26.37;;;13.87;;
4939;SDS011;2485;49.326;7.214;2024-03-06T01:51:28;25.07;;;13.43;;
4939;SDS011;2485;49.326;7.214;2024-03-06T01:53:56;27.53;;;14.00;;
4939;SDS011;2485;49.326;7.214;2024-03-06T01:56:24;29.63;;;15.27;;
4939;SDS011;2485;49.326;7.214;2024-03-06T01:58:54;29.50;;;14.23;;
4939;SDS011;2485;49.326;7.214;2024-03-06T02:01:23;26.60;;;14.17;;
4939;SDS011;2485;49.326;7.214;2024-03-06T02:03:52;38.10;;;15.30;;
4939;SDS011;2485;49.326;7.214;2024-03-06T02:06:23;33.50;;;15.17;;
4939;SDS011;2485;49.326;7.214;2024-03-06T02:08:51;29.30;;;14.23;;
4939;SDS011;2485;49.326;7.214;2024-03-06T02:11:19;23.97;;;13.80;;
4939;SDS011;2485;49.326;7.214;2024-03-06T02:13:49;28.00;;;14.87;;
4939;SDS011;2485;49.326;7.214;2024-03-06T02:16:18;25.60;;;13.30;;
4939;SDS011;2485;49.326;7.214;2024-03-06T02:18:52;26.50;;;15.70;;
4939;SDS011;2485;49.326;7.214;2024-03-06T02:21:23;32.13;;;15.03;;
4939;SDS011;2485;49.326;7.214;2024-03-06T02:23:51;24.10;;;13.47;;
4939;SDS011;2485;49.326;7.214;2024-03-06T02:26:19;29.20;;;15.00;;
4939;SDS011;2485;49.326;7.214;2024-03-06T02:28:49;28.97;;;14.40;;
4939;SDS011;2485;49.326;7.214;2024-03-06T02:31:18;23.97;;;13.60;;
4939;SDS011;2485;49.326;7.214;2024-03-06T02:33:47;34.13;;;15.80;;
4939;SDS011;2485;49.326;7.214;2024-03-06T02:36:15;24.83;;;13.30;;
4939;SDS011;2485;49.326;7.214;2024-03-06T02:38:45;24.23;;;13.70;;
4939;SDS011;2485;49.326;7.214;2024-03-06T02:41:13;29.07;;;14.00;;
4939;SDS011;2485;49.326;7.214;2024-03-06T02:43:42;27.33;;;14.07;;
4939;SDS011;2485;49.326;7.214;2024-03-06T02:46:10;28.23;;;13.83;;
4939;SDS011;2485;49.326;7.214;2024-03-06T02:48:40;25.30;;;13.33;;
4939;SDS011;2485;49.326;7.214;2024-03-06T02:51:08;25.57;;;14.03;;
4939;SDS011;2485;49.326;7.214;2024-03-06T02:53:36;28.97;;;14.97;;
4939;SDS011;2485;49.326;7.214;2024-03-06T02:56:06;35.47;;;15.50;;
4939;SDS011;2485;49.326;7.214;2024-03-06T02:58:35;31.33;;;15.20;;
4939;SDS011;2485;49.326;7.214;2024-03-06T03:01:03;28.10;;;14.63;;
4939;SDS011;2485;49.326;7.214;2024-03-06T03:03:30;32.90;;;15.60;;
4939;SDS011;2485;49.326;7.214;2024-03-06T03:05:58;30.50;;;15.30;;
4939;SDS011;2485;49.326;7.214;2024-03-06T03:08:27;27.40;;;14.80;;
4939;SDS011;2485;49.326;7.214;2024-03-06T03:10:54;30.03;;;15.00;;
4939;SDS011;2485;49.326;7.214;2024-03-06T03:13:25;25.30;;;14.43;;
4939;SDS011;2485;49.326;7.214;2024-03-06T03:15:53;26.43;;;15.53;;
4939;SDS011;2485;49.326;7.214;2024-03-06T03:18:21;29.10;;;14.63;;
4939;SDS011;2485;49.326;7.214;2024-03-06T03:20:49;27.53;;;15.67;;
4939;SDS011;2485;49.326;7.214;2024-03-06T03:23:17;30.97;;;15.97;;
4939;SDS011;2485;49.326;7.214;2024-03-06T03:25:47;30.23;;;15.60;;
4939;SDS011;2485;49.326;7.214;2024-03-06T03:28:16;30.53;;;17.03;;
4939;SDS011;2485;49.326;7.214;2024-03-06T03:30:51;31.37;;;15.20;;
4939;SDS011;2485;49.326;7.214;2024-03-06T03:33:19;34.33;;;17.13;;
4939;SDS011;2485;49.326;7.214;2024-03-06T03:35:47;29.90;;;16.97;;
4939;SDS011;2485;49.326;7.214;2024-03-06T03:38:15;30.03;;;16.67;;
4939;SDS011;2485;49.326;7.214;2024-03-06T03:40:43;28.03;;;16.40;;
4939;SDS011;2485;49.326;7.214;2024-03-06T03:43:11;31.90;;;17.37;;
4939;SDS011;2485;49.326;7.214;2024-03-06T03:45:39;35.03;;;17.93;;
4939;SDS011;2485;49.326;7.214;2024-03-06T03:48:08;33.77;;;16.43;;
4939;SDS011;2485;49.326;7.214;2024-03-06T03:50:37;39.47;;;17.93;;
4939;SDS011;2485;49.326;7.214;2024-03-06T03:53:05;32.07;;;16.27;;
4939;SDS011;2485;49.326;7.214;2024-03-06T03:55:33;33.30;;;17.47;;
4939;SDS011;2485;49.326;7.214;2024-03-06T03:58:01;29.23;;;16.40;;
4939;SDS011;2485;49.326;7.214;2024-03-06T04:00:32;37.63;;;16.70;;
4939;SDS011;2485;49.326;7.214;2024-03-06T04:03:01;35.30;;;19.23;;
4939;SDS011;2485;49.326;7.214;2024-03-06T04:05:30;33.73;;;17.80;;
4939;SDS011;2485;49.326;7.214;2024-03-06T04:07:58;30.80;;;18.00;;
4939;SDS011;2485;49.326;7.214;2024-03-06T04:10:27;32.70;;;17.83;;
4939;SDS011;2485;49.326;7.214;2024-03-06T04:12:58;39.53;;;17.20;;
4939;SDS011;2485;49.326;7.214;2024-03-06T04:15:26;30.33;;;17.00;;
4939;SDS011;2485;49.326;7.214;2024-03-06T04:17:56;48.33;;;16.90;;
4939;SDS011;2485;49.326;7.214;2024-03-06T04:20:23;32.30;;;16.83;;
4939;SDS011;2485;49.326;7.214;2024-03-06T04:22:54;34.37;;;15.77;;
4939;SDS011;2485;49.326;7.214;2024-03-06T04:25:22;30.77;;;16.37;;
4939;SDS011;2485;49.326;7.214;2024-03-06T04:27:50;30.63;;;16.60;;
4939;SDS011;2485;49.326;7.214;2024-03-06T04:30:18;29.00;;;17.07;;
4939;SDS011;2485;49.326;7.214;2024-03-06T04:32:46;36.03;;;15.77;;
4939;SDS011;2485;49.326;7.214;2024-03-06T04:35:15;32.47;;;15.50;;
4939;SDS011;2485;49.326;7.214;2024-03-06T04:37:43;27.60;;;15.87;;
4939;SDS011;2485;49.326;7.214;2024-03-06T04:40:16;31.57;;;17.13;;
4939;SDS011;2485;49.326;7.214;2024-03-06T04:42:47;33.43;;;17.83;;
4939;SDS011;2485;49.326;7.214;2024-03-06T04:45:15;27.77;;;15.80;;
4939;SDS011;2485;49.326;7.214;2024-03-06T04:47:44;30.17;;;16.60;;
4939;SDS011;2485;49.326;7.214;2024-03-06T04:50:11;28.70;;;16.10;;
4939;SDS011;2485;49.326;7.214;2024-03-06T04:52:39;35.10;;;17.87;;
4939;SDS011;2485;49.326;7.214;2024-03-06T04:55:06;43.93;;;20.90;;
4939;SDS011;2485;49.326;7.214;2024-03-06T04:57:38;42.23;;;18.87;;
4939;SDS011;2485;49.326;7.214;2024-03-06T05:00:06;39.43;;;19.77;;
4939;SDS011;2485;49.326;7.214;2024-03-06T05:02:34;36.70;;;18.63;;
4939;SDS011;2485;49.326;7.214;2024-03-06T05:05:03;35.57;;;17.70;;
4939;SDS011;2485;49.326;7.214;2024-03-06T05:07:31;34.73;;;16.70;;
4939;SDS011;2485;49.326;7.214;2024-03-06T05:10:00;29.57;;;15.57;;
4939;SDS011;2485;49.326;7.214;2024-03-06T05:12:28;29.00;;;15.17;;
4939;SDS011;2485;49.326;7.214;2024-03-06T05:14:59;30.83;;;17.70;;
4939;SDS011;2485;49.326;7.214;2024-03-06T05:17:27;33.07;;;16.37;;
4939;SDS011;2485;49.326;7.214;2024-03-06T05:19:55;31.60;;;15.67;;
4939;SDS011;2485;49.326;7.214;2024-03-06T05:22:23;44.53;;;22.13;;
4939;SDS011;2485;49.326;7.214;2024-03-06T05:24:51;37.33;;;19.10;;
4939;SDS011;2485;49.326;7.214;2024-03-06T05:27:20;34.27;;;18.40;;
4939;SDS011;2485;49.326;7.214;2024-03-06T05:29:51;31.63;;;17.10;;
4939;SDS011;2485;49.326;7.214;2024-03-06T05:32:20;38.73;;;20.43;;
4939;SDS011;2485;49.326;7.214;2024-03-06T05:34:48;32.30;;;16.60;;
4939;SDS011;2485;49.326;7.214;2024-03-06T05:37:15;39.50;;;18.00;;
4939;SDS011;2485;49.326;7.214;2024-03-06T05:39:43;29.73;;;16.17;;
4939;SDS011;2485;49.326;7.214;2024-03-06T05:42:11;29.47;;;15.20;;
4939;SDS011;2485;49.326;7.214;2024-03-06T05:44:39;34.33;;;16.70;;
4939;SDS011;2485;49.326;7.214;2024-03-06T05:47:08;29.87;;;15.20;;
4939;SDS011;2485;49.326;7.214;2024-03-06T05:49:38;31.87;;;16.33;;
4939;SDS011;2485;49.326;7.214;2024-03-06T05:52:06;30.80;;;15.10;;
4939;SDS011;2485;49.326;7.214;2024-03-06T05:54:33;36.47;;;18.17;;
4939;SDS011;2485;49.326;7.214;2024-03-06T05:57:02;34.30;;;18.27;;
4939;SDS011;2485;49.326;7.214;2024-03-06T05:59:30;37.53;;;18.40;;
4939;SDS011;2485;49.326;7.214;2024-03-06T06:01:58;37.83;;;18.93;;
4939;SDS011;2485;49.326;7.214;2024-03-06T06:04:26;35.47;;;18.10;;
4939;SDS011;2485;49.326;7.214;2024-03-06T06:06:57;39.67;;;18.57;;
4939;SDS011;2485;49.326;7.214;2024-03-06T06:09:28;33.80;;;17.60;;
4939;SDS011;2485;49.326;7.214;2024-03-06T06:11:55;36.00;;;18.97;;
4939;SDS011;2485;49.326;7.214;2024-03-06T06:14:22;30.00;;;16.70;;
4939;SDS011;2485;49.326;7.214;2024-03-06T06:16:52;33.17;;;16.53;;
4939;SDS011;2485;49.326;7.214;2024-03-06T06:19:20;30.13;;;16.53;;
4939;SDS011;2485;49.326;7.214;2024-03-06T06:21:48;29.47;;;17.67;;
4939;SDS011;2485;49.326;7.214;2024-03-06T06:24:17;37.20;;;18.60;;
4939;SDS011;2485;49.326;7.214;2024-03-06T06:26:46;37.80;;;18.90;;
4939;SDS011;2485;49.326;7.214;2024-03-06T06:29:14;37.00;;;19.77;;
4939;SDS011;2485;49.326;7.214;2024-03-06T06:31:42;40.70;;;19.70;;
4939;SDS011;2485;49.326;7.214;2024-03-06T06:34:11;37.20;;;19.40;;
4939;SDS011;2485;49.326;7.214;2024-03-06T06:36:39;36.47;;;19.17;;
4939;SDS011;2485;49.326;7.214;2024-03-06T06:39:12;31.70;;;18.60;;
4939;SDS011;2485;49.326;7.214;2024-03-06T06:41:44;37.50;;;18.30;;
4939;SDS011;2485;49.326;7.214;2024-03-06T06:44:14;39.80;;;20.40;;
4939;SDS011;2485;49.326;7.214;2024-03-06T06:46:42;37.20;;;19.20;;
4939;SDS011;2485;49.326;7.214;2024-03-06T06:49:10;33.27;;;18.67;;
4939;SDS011;2485;49.326;7.214;2024-03-06T06:51:38;34.63;;;19.20;;
4939;SDS011;2485;49.326;7.214;2024-03-06T06:54:06;45.73;;;21.70;;
4939;SDS011;2485;49.326;7.214;2024-03-06T06:56:34;50.47;;;19.70;;
4939;SDS011;2485;49.326;7.214;2024-03-06T06:59:04;45.73;;;21.97;;
4939;SDS011;2485;49.326;7.214;2024-03-06T07:01:32;43.73;;;21.83;;
4939;SDS011;2485;49.326;7.214;2024-03-06T07:04:01;40.57;;;21.80;;
4939;SDS011;2485;49.326;7.214;2024-03-06T07:06:29;51.93;;;24.73;;
4939;SDS011;2485;49.326;7.214;2024-03-06T07:08:57;50.23;;;23.10;;
4939;SDS011;2485;49.326;7.214;2024-03-06T07:11:25;45.40;;;23.20;;
4939;SDS011;2485;49.326;7.214;2024-03-06T07:13:54;44.60;;;22.27;;
4939;SDS011;2485;49.326;7.214;2024-03-06T07:16:23;43.80;;;21.50;;
4939;SDS011;2485;49.326;7.214;2024-03-06T07:18:51;45.33;;;21.70;;
4939;SDS011;2485;49.326;7.214;2024-03-06T07:21:19;38.90;;;20.47;;
4939;SDS011;2485;49.326;7.214;2024-03-06T07:23:48;50.83;;;21.97;;
4939;SDS011;2485;49.326;7.214;2024-03-06T07:26:16;36.37;;;22.33;;
4939;SDS011;2485;49.326;7.214;2024-03-06T07:28:44;39.07;;;21.20;;
4939;SDS011;2485;49.326;7.214;2024-03-06T07:31:12;40.43;;;21.57;;
4939;SDS011;2485;49.326;7.214;2024-03-06T07:33:41;34.83;;;20.50;;
4939;SDS011;2485;49.326;7.214;2024-03-06T07:36:09;36.13;;;21.17;;
4939;SDS011;2485;49.326;7.214;2024-03-06T07:38:37;38.50;;;21.23;;
4939;SDS011;2485;49.326;7.214;2024-03-06T07:41:07;41.10;;;19.93;;
4939;SDS011;2485;49.326;7.214;2024-03-06T07:43:36;37.10;;;21.10;;
4939;SDS011;2485;49.326;7.214;2024-03-06T07:46:04;40.73;;;21.10;;
4939;SDS011;2485;49.326;7.214;2024-03-06T07:48:35;35.40;;;20.33;;
4939;SDS011;2485;49.326;7.214;2024-03-06T07:51:07;45.10;;;23.60;;
4939;SDS011;2485;49.326;7.214;2024-03-06T07:53:35;55.47;;;26.90;;
4939;SDS011;2485;49.326;7.214;2024-03-06T07:56:03;45.97;;;25.13;;
4939;SDS011;2485;49.326;7.214;2024-03-06T07:58:31;48.50;;;25.67;;
4939;SDS011;2485;49.326;7.214;2024-03-06T08:00:59;44.47;;;23.33;;
4939;SDS011;2485;49.326;7.214;2024-03-06T08:03:28;48.60;;;25.50;;
4939;SDS011;2485;49.326;7.214;2024-03-06T08:05:55;43.83;;;23.33;;
4939;SDS011;2485;49.326;7.214;2024-03-06T08:08:24;43.80;;;24.43;;
4939;SDS011;2485;49.326;7.214;2024-03-06T08:10:52;45.40;;;23.80;;
4939;SDS011;2485;49.326;7.214;2024-03-06T08:13:21;41.80;;;24.03;;
4939;SDS011;2485;49.326;7.214;2024-03-06T08:15:49;40.10;;;22.47;;
4939;SDS011;2485;49.326;7.214;2024-03-06T08:18:16;41.50;;;21.70;;
4939;SDS011;2485;49.326;7.214;2024-03-06T08:20:44;39.90;;;20.90;;
4939;SDS011;2485;49.326;7.214;2024-03-06T08:23:14;36.07;;;19.90;;
4939;SDS011;2485;49.326;7.214;2024-03-06T08:25:44;35.73;;;19.63;;
4939;SDS011;2485;49.326;7.214;2024-03-06T08:28:13;35.63;;;20.80;;
4939;SDS011;2485;49.326;7.214;2024-03-06T08:30:42;37.03;;;18.10;;
4939;SDS011;2485;49.326;7.214;2024-03-06T08:33:10;35.40;;;18.57;;
4939;SDS011;2485;49.326;7.214;2024-03-06T08:35:38;30.13;;;17.73;;
4939;SDS011;2485;49.326;7.214;2024-03-06T08:38:07;34.40;;;18.30;;
4939;SDS011;2485;49.326;7.214;2024-03-06T08:40:35;31.40;;;17.70;;
4939;SDS011;2485;49.326;7.214;2024-03-06T08:43:05;28.80;;;17.97;;
4939;SDS011;2485;49.326;7.214;2024-03-06T08:45:34;31.20;;;17.83;;
4939;SDS011;2485;49.326;7.214;2024-03-06T08:48:02;35.17;;;19.67;;
4939;SDS011;2485;49.326;7.214;2024-03-06T08:50:31;30.43;;;17.77;;
4939;SDS011;2485;49.326;7.214;2024-03-06T08:53:01;33.27;;;17.60;;
4939;SDS011;2485;49.326;7.214;2024-03-06T08:55:29;33.57;;;16.27;;
4939;SDS011;2485;49.326;7.214;2024-03-06T08:57:57;29.60;;;17.73;;
4939;SDS011;2485;49.326;7.214;2024-03-06T09:00:28;27.97;;;16.67;;
4939;SDS011;2485;49.326;7.214;2024-03-06T09:02:57;34.00;;;16.20;;
4939;SDS011;2485;49.326;7.214;2024-03-06T09:05:26;27.70;;;16.30;;
4939;SDS011;2485;49.326;7.214;2024-03-06T09:07:54;26.53;;;14.83;;
4939;SDS011;2485;49.326;7.214;2024-03-06T09:10:23;28.07;;;14.60;;
4939;SDS011;2485;49.326;7.214;2024-03-06T09:12:51;26.73;;;14.40;;
4939;SDS011;2485;49.326;7.214;2024-03-06T09:15:18;23.70;;;14.60;;
4939;SDS011;2485;49.326;7.214;2024-03-06T09:17:48;23.93;;;13.73;;
4939;SDS011;2485;49.326;7.214;2024-03-06T09:20:16;25.53;;;13.77;;
4939;SDS011;2485;49.326;7.214;2024-03-06T09:22:43;19.80;;;13.80;;
4939;SDS011;2485;49.326;7.214;2024-03-06T09:25:11;23.10;;;13.83;;
4939;SDS011;2485;49.326;7.214;2024-03-06T09:27:40;22.50;;;12.77;;
4939;SDS011;2485;49.326;7.214;2024-03-06T09:30:10;20.50;;;11.70;;
4939;SDS011;2485;49.326;7.214;2024-03-06T09:32:39;20.30;;;13.80;;
4939;SDS011;2485;49.326;7.214;2024-03-06T09:35:10;22.37;;;12.30;;
4939;SDS011;2485;49.326;7.214;2024-03-06T09:37:40;21.43;;;11.67;;
4939;SDS011;2485;49.326;7.214;2024-03-06T09:40:09;20.63;;;12.17;;
4939;SDS011;2485;49.326;7.214;2024-03-06T09:42:39;24.23;;;12.43;;
4939;SDS011;2485;49.326;7.214;2024-03-06T09:45:07;20.90;;;11.97;;
4939;SDS011;2485;49.326;7.214;2024-03-06T09:47:34;27.37;;;10.80;;
4939;SDS011;2485;49.326;7.214;2024-03-06T09:50:03;18.87;;;10.40;;
4939;SDS011;2485;49.326;7.214;2024-03-06T09:52:37;18.60;;;10.80;;
4939;SDS011;2485;49.326;7.214;2024-03-06T09:55:07;20.30;;;10.80;;
4939;SDS011;2485;49.326;7.214;2024-03-06T09:57:36;21.30;;;10.30;;
4939;SDS011;2485;49.326;7.214;2024-03-06T10:00:04;13.50;;;8.50;;
4939;SDS011;2485;49.326;7.214;2024-03-06T10:02:37;20.00;;;9.20;;
4939;SDS011;2485;49.326;7.214;2024-03-06T10:05:05;17.63;;;9.30;;
4939;SDS011;2485;49.326;7.214;2024-03-06T10:07:34;11.97;;;8.23;;
4939;SDS011;2485;49.326;7.214;2024-03-06T10:10:05;12.30;;;7.90;;
4939;SDS011;2485;49.326;7.214;2024-03-06T10:12:35;16.33;;;8.00;;
4939;SDS011;2485;49.326;7.214;2024-03-06T10:15:03;10.53;;;7.53;;
4939;SDS011;2485;49.326;7.214;2024-03-06T10:17:31;13.50;;;6.63;;
4939;SDS011;2485;49.326;7.214;2024-03-06T10:20:00;14.50;;;8.50;;
4939;SDS011;2485;49.326;7.214;2024-03-06T10:22:30;13.33;;;7.53;;
4939;SDS011;2485;49.326;7.214;2024-03-06T10:24:58;14.87;;;7.83;;
4939;SDS011;2485;49.326;7.214;2024-03-06T10:27:28;16.00;;;7.73;;
4939;SDS011;2485;49.326;7.214;2024-03-06T10:30:03;13.30;;;7.20;;
4939;SDS011;2485;49.326;7.214;2024-03-06T10:32:31;11.10;;;6.23;;
4939;SDS011;2485;49.326;7.214;2024-03-06T10:34:59;9.40;;;6.13;;
4939;SDS011;2485;49.326;7.214;2024-03-06T10:37:26;9.50;;;5.80;;
4939;SDS011;2485;49.326;7.214;2024-03-06T10:39:56;8.30;;;4.90;;
4939;SDS011;2485;49.326;7.214;2024-03-06T10:42:30;6.40;;;4.33;;
4939;SDS011;2485;49.326;7.214;2024-03-06T10:44:59;6.00;;;4.23;;
4939;SDS011;2485;49.326;7.214;2024-03-06T10:47:27;5.13;;;3.50;;
4939;SDS011;2485;49.326;7.214;2024-03-06T10:49:55;7.93;;;3.57;;
4939;SDS011;2485;49.326;7.214;2024-03-06T10:52:30;6.87;;;4.17;;
4939;SDS011;2485;49.326;7.214;2024-03-06T10:54:58;6.47;;;3.57;;
4939;SDS011;2485;49.326;7.214;2024-03-06T10:57:28;6.90;;;4.10;;
4939;SDS011;2485;49.326;7.214;2024-03-06T10:59:59;6.47;;;3.80;;
4939;SDS011;2485;49.326;7.214;2024-03-06T11:02:27;8.17;;;4.40;;
4939;SDS011;2485;49.326;7.214;2024-03-06T11:04:54;6.67;;;3.40;;
4939;SDS011;2485;49.326;7.214;2024-03-06T11:07:22;6.93;;;3.57;;
4939;SDS011;2485;49.326;7.214;2024-03-06T11:09:50;5.73;;;2.90;;
4939;SDS011;2485;49.326;7.214;2024-03-06T11:15:03;3.77;;;2.20;;
4939;SDS011;2485;49.326;7.214;2024-03-06T11:17:36;2.93;;;2.30;;
4939;SDS011;2485;49.326;7.214;2024-03-06T11:20:13;4.03;;;2.07;;
4939;SDS011;2485;49.326;7.214;2024-03-06T11:28:10;4.40;;;2.10;;
4939;SDS011;2485;49.326;7.214;2024-03-06T11:30:46;3.83;;;2.90;;
4939;SDS011;2485;49.326;7.214;2024-03-06T11:33:15;2.80;;;2.17;;
4939;SDS011;2485;49.326;7.214;2024-03-06T11:35:43;6.10;;;3.13;;
4939;SDS011;2485;49.326;7.214;2024-03-06T11:38:31;3.90;;;2.33;;
4939;SDS011;2485;49.326;7.214;2024-03-06T11:40:59;6.53;;;2.30;;
4939;SDS011;2485;49.326;7.214;2024-03-06T11:43:26;5.30;;;1.90;;
4939;SDS011;2485;49.326;7.214;2024-03-06T11:46:09;5.90;;;2.40;;
4939;SDS011;2485;49.326;7.214;2024-03-06T11:48:36;5.87;;;1.93;;
4939;SDS011;2485;49.326;7.214;2024-03-06T11:51:04;6.53;;;2.37;;
4939;SDS011;2485;49.326;7.214;2024-03-06T11:53:32;7.90;;;2.30;;
4939;SDS011;2485;49.326;7.214;2024-03-06T11:56:00;2.83;;;1.93;;
4939;SDS011;2485;49.326;7.214;2024-03-06T11:58:28;5.10;;;2.07;;
4939;SDS011;2485;49.326;7.214;2024-03-06T12:00:56;2.87;;;2.20;;
4939;SDS011;2485;49.326;7.214;2024-03-06T12:03:28;4.50;;;2.50;;
4939;SDS011;2485;49.326;7.214;2024-03-06T12:05:56;5.00;;;2.30;;
4939;SDS011;2485;49.326;7.214;2024-03-06T12:08:23;3.27;;;2.47;;
4939;SDS011;2485;49.326;7.214;2024-03-06T12:10:54;5.17;;;2.53;;
4939;SDS011;2485;49.326;7.214;2024-03-06T12:13:23;8.73;;;2.30;;
4939;SDS011;2485;49.326;7.214;2024-03-06T12:15:51;5.17;;;2.20;;
4939;SDS011;2485;49.326;7.214;2024-03-06T12:18:19;4.30;;;2.20;;
4939;SDS011;2485;49.326;7.214;2024-03-06T12:20:49;3.77;;;1.93;;
4939;SDS011;2485;49.326;7.214;2024-03-06T12:23:20;2.70;;;1.97;;
4939;SDS011;2485;49.326;7.214;2024-03-06T12:25:48;2.60;;;2.20;;
4939;SDS011;2485;49.326;7.214;2024-03-06T12:28:23;4.13;;;1.93;;
4939;SDS011;2485;49.326;7.214;2024-03-06T12:30:52;5.37;;;4.20;;
4939;SDS011;2485;49.326;7.214;2024-03-06T12:33:20;3.03;;;2.00;;
4939;SDS011;2485;49.326;7.214;2024-03-06T12:35:49;3.10;;;2.10;;
4939;SDS011;2485;49.326;7.214;2024-03-06T12:38:28;3.53;;;2.10;;
4939;SDS011;2485;49.326;7.214;2024-03-06T12:40:56;6.20;;;2.50;;
4939;SDS011;2485;49.326;7.214;2024-03-06T12:43:25;3.60;;;2.10;;
4939;SDS011;2485;49.326;7.214;2024-03-06T12:45:54;4.13;;;2.10;;
4939;SDS011;2485;49.326;7.214;2024-03-06T12:48:22;2.73;;;2.10;;
4939;SDS011;2485;49.326;7.214;2024-03-06T12:50:52;3.70;;;2.80;;
4939;SDS011;2485;49.326;7.214;2024-03-06T12:53:20;4.97;;;3.00;;
4939;SDS011;2485;49.326;7.214;2024-03-06T12:55:47;3.83;;;2.00;;
4939;SDS011;2485;49.326;7.214;2024-03-06T12:58:15;3.13;;;2.00;;
4939;SDS011;2485;49.326;7.214;2024-03-06T13:00:42;3.57;;;1.90;;
4939;SDS011;2485;49.326;7.214;2024-03-06T13:03:09;2.77;;;2.00;;
4939;SDS011;2485;49.326;7.214;2024-03-06T13:05:36;2.90;;;1.87;;
4939;SDS011;2485;49.326;7.214;2024-03-06T13:08:05;1.57;;;1.40;;
4939;SDS011;2485;49.326;7.214;2024-03-06T13:10:32;3.60;;;2.40;;
4939;SDS011;2485;49.326;7.214;2024-03-06T13:13:01;3.67;;;1.80;;
4939;SDS011;2485;49.326;7.214;2024-03-06T13:15:28;3.93;;;2.17;;
4939;SDS011;2485;49.326;7.214;2024-03-06T13:17:54;4.57;;;2.43;;
4939;SDS011;2485;49.326;7.214;2024-03-06T13:20:21;2.43;;;2.00;;
4939;SDS011;2485;49.326;7.214;2024-03-06T13:22:48;8.90;;;2.10;;
4939;SDS011;2485;49.326;7.214;2024-03-06T13:25:17;3.47;;;2.30;;
4939;SDS011;2485;49.326;7.214;2024-03-06T13:27:44;3.13;;;1.80;;
4939;SDS011;2485;49.326;7.214;2024-03-06T13:30:12;4.93;;;2.20;;
4939;SDS011;2485;49.326;7.214;2024-03-06T13:32:39;3.47;;;1.73;;
4939;SDS011;2485;49.326;7.214;2024-03-06T13:35:08;4.53;;;1.63;;
4939;SDS011;2485;49.326;7.214;2024-03-06T13:37:40;4.10;;;1.57;;
4939;SDS011;2485;49.326;7.214;2024-03-06T13:40:07;3.63;;;2.37;;
4939;SDS011;2485;49.326;7.214;2024-03-06T13:42:37;4.30;;;2.07;;
4939;SDS011;2485;49.326;7.214;2024-03-06T13:45:04;4.63;;;1.77;;
4939;SDS011;2485;49.326;7.214;2024-03-06T13:47:36;6.87;;;3.20;;
4939;SDS011;2485;49.326;7.214;2024-03-06T13:50:04;6.00;;;2.47;;
4939;SDS011;2485;49.326;7.214;2024-03-06T13:52:33;9.60;;;3.13;;
4939;SDS011;2485;49.326;7.214;2024-03-06T13:55:00;4.77;;;2.20;;
4939;SDS011;2485;49.326;7.214;2024-03-06T13:57:30;5.63;;;2.20;;
4939;SDS011;2485;49.326;7.214;2024-03-06T14:00:00;5.07;;;2.50;;
4939;SDS011;2485;49.326;7.214;2024-03-06T14:02:27;4.33;;;3.13;;
4939;SDS011;2485;49.326;7.214;2024-03-06T14:04:54;6.53;;;2.50;;
4939;SDS011;2485;49.326;7.214;2024-03-06T14:07:21;4.13;;;2.70;;
4939;SDS011;2485;49.326;7.214;2024-03-06T14:09:48;2.93;;;2.40;;
4939;SDS011;2485;49.326;7.214;2024-03-06T14:12:15;4.47;;;2.57;;
4939;SDS011;2485;49.326;7.214;2024-03-06T14:14:42;10.90;;;3.50;;
4939;SDS011;2485;49.326;7.214;2024-03-06T14:17:11;4.57;;;2.50;;
4939;SDS011;2485;49.326;7.214;2024-03-06T14:19:39;6.43;;;2.90;;
4939;SDS011;2485;49.326;7.214;2024-03-06T14:22:06;4.80;;;2.27;;
4939;SDS011;2485;49.326;7.214;2024-03-06T14:24:34;3.00;;;2.03;;
4939;SDS011;2485;49.326;7.214;2024-03-06T14:27:01;4.53;;;1.90;;
4939;SDS011;2485;49.326;7.214;2024-03-06T14:29:28;2.70;;;1.80;;
4939;SDS011;2485;49.326;7.214;2024-03-06T14:31:55;6.07;;;2.10;;
4939;SDS011;2485;49.326;7.214;2024-03-06T14:34:23;9.17;;;2.03;;
4939;SDS011;2485;49.326;7.214;2024-03-06T14:36:50;4.10;;;2.57;;
4939;SDS011;2485;49.326;7.214;2024-03-06T14:39:17;5.60;;;2.50;;
4939;SDS011;2485;49.326;7.214;2024-03-06T14:41:47;3.47;;;2.10;;
4939;SDS011;2485;49.326;7.214;2024-03-06T14:44:14;5.13;;;2.40;;
4939;SDS011;2485;49.326;7.214;2024-03-06T14:46:42;4.70;;;2.70;;
4939;SDS011;2485;49.326;7.214;2024-03-06T14:49:09;3.30;;;2.70;;
4939;SDS011;2485;49.326;7.214;2024-03-06T14:51:38;6.03;;;3.17;;
4939;SDS011;2485;49.326;7.214;2024-03-06T14:54:05;3.20;;;2.20;;
4939;SDS011;2485;49.326;7.214;2024-03-06T14:56:32;6.47;;;2.33;;
4939;SDS011;2485;49.326;7.214;2024-03-06T14:58:59;3.00;;;2.13;;
4939;SDS011;2485;49.326;7.214;2024-03-06T15:01:26;5.10;;;2.77;;
4939;SDS011;2485;49.326;7.214;2024-03-06T15:03:53;5.73;;;2.97;;
4939;SDS011;2485;49.326;7.214;2024-03-06T15:06:20;2.40;;;2.20;;
4939;SDS011;2485;49.326;7.214;2024-03-06T15:08:49;3.97;;;2.93;;
4939;SDS011;2485;49.326;7.214;2024-03-06T15:11:16;4.70;;;2.77;;
4939;SDS011;2485;49.326;7.214;2024-03-06T15:13:43;10.33;;;3.00;;